Terminal Aerodrome Forecast
Issued by NWS Wilmington, OH

Home | Current Version | Previous Version | Text Only | Print | Product List | Glossary On
Versions: 1 2 3 4 5 6 7 8 9 10 11 12 13 14 15 16 17 18 19 20
994
FTUS41 KILN 120541
TAFDAY
TAF
KDAY 120541Z 1206/1306 27014G22KT P6SM BKN045
     FM120700 29016G24KT P6SM OVC012
     FM121000 31018G28KT 3SM -SHSN OVC018
      TEMPO 1210/1213 1SM -SHSN
     FM121300 31018G26KT 3SM -SHSN BKN022 OVC040
      TEMPO 1214/1217 1SM -SHSN
     FM121800 30018G26KT P6SM VCSH OVC035
     FM130000 29014KT P6SM BKN035=

USA.gov is the U.S. government's official web portal to all federal, state and local government web resources and services.